sensor_id;sensor_type;location;lat;lon;timestamp;temperature;humidity
71304;DHT22;59091;47.446;19.148;2023-03-25T00:01:30;17.35;54.07
71304;DHT22;59091;47.446;19.148;2023-03-25T00:03:57;17.33;53.99
71304;DHT22;59091;47.446;19.148;2023-03-25T00:06:22;17.32;54.20
71304;DHT22;59091;47.446;19.148;2023-03-25T00:08:48;17.25;54.33
71304;DHT22;59091;47.446;19.148;2023-03-25T00:11:13;17.18;54.45
71304;DHT22;59091;47.446;19.148;2023-03-25T00:13:39;17.16;54.58
71304;DHT22;59091;47.446;19.148;2023-03-25T00:16:06;17.14;54.71
71304;DHT22;59091;47.446;19.148;2023-03-25T00:18:34;17.09;54.74
71304;DHT22;59091;47.446;19.148;2023-03-25T00:21:03;17.06;54.82
71304;DHT22;59091;47.446;19.148;2023-03-25T00:23:30;17.05;55.09
71304;DHT22;59091;47.446;19.148;2023-03-25T00:25:55;17.05;55.22
71304;DHT22;59091;47.446;19.148;2023-03-25T00:28:35;16.99;55.26
71304;DHT22;59091;47.446;19.148;2023-03-25T00:31:10;16.96;55.16
71304;DHT22;59091;47.446;19.148;2023-03-25T00:33:36;16.96;55.32
71304;DHT22;59091;47.446;19.148;2023-03-25T00:36:02;16.94;55.47
71304;DHT22;59091;47.446;19.148;2023-03-25T00:38:31;16.74;55.63
71304;DHT22;59091;47.446;19.148;2023-03-25T00:44:09;16.57;53.83
71304;DHT22;59091;47.446;19.148;2023-03-25T00:46:36;16.74;53.61
71304;DHT22;59091;47.446;19.148;2023-03-25T00:49:02;16.74;53.20
71304;DHT22;59091;47.446;19.148;2023-03-25T00:51:28;16.91;53.27
71304;DHT22;59091;47.446;19.148;2023-03-25T00:53:57;16.91;53.14
71304;DHT22;59091;47.446;19.148;2023-03-25T00:56:26;16.91;53.07
71304;DHT22;59091;47.446;19.148;2023-03-25T00:58:52;16.95;53.24
71304;DHT22;59091;47.446;19.148;2023-03-25T01:01:21;16.91;53.47
71304;DHT22;59091;47.446;19.148;2023-03-25T01:03:55;16.98;53.66
71304;DHT22;59091;47.446;19.148;2023-03-25T01:06:30;16.88;54.20
71304;DHT22;59091;47.446;19.148;2023-03-25T01:08:57;17.04;54.10
71304;DHT22;59091;47.446;19.148;2023-03-25T01:11:28;16.86;54.74
71304;DHT22;59091;47.446;19.148;2023-03-25T01:13:55;16.89;54.75
71304;DHT22;59091;47.446;19.148;2023-03-25T01:16:22;16.86;55.03
71304;DHT22;59091;47.446;19.148;2023-03-25T01:18:48;16.94;54.87
71304;DHT22;59091;47.446;19.148;2023-03-25T01:21:13;17.04;54.81
71304;DHT22;59091;47.446;19.148;2023-03-25T01:23:39;16.99;55.22
71304;DHT22;59091;47.446;19.148;2023-03-25T01:26:05;16.64;57.17
71304;DHT22;59091;47.446;19.148;2023-03-25T01:28:31;16.54;58.18
71304;DHT22;59091;47.446;19.148;2023-03-25T01:31:01;16.44;58.56
71304;DHT22;59091;47.446;19.148;2023-03-25T01:33:27;16.44;58.92
71304;DHT22;59091;47.446;19.148;2023-03-25T01:35:53;16.57;58.56
71304;DHT22;59091;47.446;19.148;2023-03-25T01:38:18;16.55;58.65
71304;DHT22;59091;47.446;19.148;2023-03-25T01:40:47;16.40;59.79
71304;DHT22;59091;47.446;19.148;2023-03-25T01:43:14;16.38;60.40
71304;DHT22;59091;47.446;19.148;2023-03-25T01:45:39;16.40;60.30
71304;DHT22;59091;47.446;19.148;2023-03-25T01:48:09;16.20;61.31
71304;DHT22;59091;47.446;19.148;2023-03-25T01:50:40;16.10;61.87
71304;DHT22;59091;47.446;19.148;2023-03-25T01:53:07;16.14;62.19
71304;DHT22;59091;47.446;19.148;2023-03-25T01:55:34;16.10;62.78
71304;DHT22;59091;47.446;19.148;2023-03-25T01:58:04;15.99;63.65
71304;DHT22;59091;47.446;19.148;2023-03-25T02:00:32;15.96;63.89
71304;DHT22;59091;47.446;19.148;2023-03-25T02:02:58;16.02;63.96
71304;DHT22;59091;47.446;19.148;2023-03-25T02:05:36;15.96;63.95
71304;DHT22;59091;47.446;19.148;2023-03-25T02:08:05;15.89;64.22
71304;DHT22;59091;47.446;19.148;2023-03-25T02:10:31;15.70;64.81
71304;DHT22;59091;47.446;19.148;2023-03-25T02:12:57;15.51;66.18
71304;DHT22;59091;47.446;19.148;2023-03-25T02:15:23;15.42;66.69
71304;DHT22;59091;47.446;19.148;2023-03-25T02:18:14;15.46;67.28
71304;DHT22;59091;47.446;19.148;2023-03-25T02:21:12;15.51;67.45
71304;DHT22;59091;47.446;19.148;2023-03-25T02:23:59;15.22;68.06
71304;DHT22;59091;47.446;19.148;2023-03-25T02:27:03;15.08;69.40
71304;DHT22;59091;47.446;19.148;2023-03-25T02:43:35;14.74;70.36
71304;DHT22;59091;47.446;19.148;2023-03-25T02:46:08;14.70;70.52
71304;DHT22;59091;47.446;19.148;2023-03-25T02:48:57;14.53;71.15
71304;DHT22;59091;47.446;19.148;2023-03-25T02:54:16;14.60;71.30
71304;DHT22;59091;47.446;19.148;2023-03-25T02:56:44;14.56;71.35
71304;DHT22;59091;47.446;19.148;2023-03-25T02:59:12;14.44;71.62
71304;DHT22;59091;47.446;19.148;2023-03-25T03:01:41;14.57;71.26
71304;DHT22;59091;47.446;19.148;2023-03-25T03:04:06;14.67;71.20
71304;DHT22;59091;47.446;19.148;2023-03-25T03:06:40;14.62;71.02
71304;DHT22;59091;47.446;19.148;2023-03-25T03:20:08;14.34;69.94
71304;DHT22;59091;47.446;19.148;2023-03-25T03:25:19;14.50;69.56
71304;DHT22;59091;47.446;19.148;2023-03-25T03:28:12;14.43;69.40
71304;DHT22;59091;47.446;19.148;2023-03-25T03:30:56;14.29;69.80
71304;DHT22;59091;47.446;19.148;2023-03-25T03:33:43;14.28;69.46
71304;DHT22;59091;47.446;19.148;2023-03-25T03:36:16;14.11;70.48
71304;DHT22;59091;47.446;19.148;2023-03-25T03:38:57;14.15;70.53
71304;DHT22;59091;47.446;19.148;2023-03-25T03:41:25;14.06;70.73
71304;DHT22;59091;47.446;19.148;2023-03-25T03:43:56;13.99;71.02
71304;DHT22;59091;47.446;19.148;2023-03-25T03:46:29;14.04;70.52
71304;DHT22;59091;47.446;19.148;2023-03-25T03:49:00;13.82;71.91
71304;DHT22;59091;47.446;19.148;2023-03-25T03:51:35;13.86;72.79
71304;DHT22;59091;47.446;19.148;2023-03-25T03:54:08;13.72;73.43
71304;DHT22;59091;47.446;19.148;2023-03-25T03:56:49;13.75;73.57
71304;DHT22;59091;47.446;19.148;2023-03-25T04:05:17;13.65;74.95
71304;DHT22;59091;47.446;19.148;2023-03-25T04:07:51;13.60;76.20
71304;DHT22;59091;47.446;19.148;2023-03-25T04:12:54;13.51;76.61
71304;DHT22;59091;47.446;19.148;2023-03-25T04:15:22;13.44;77.32
71304;DHT22;59091;47.446;19.148;2023-03-25T04:17:47;13.65;76.63
71304;DHT22;59091;47.446;19.148;2023-03-25T04:20:14;13.55;76.84
71304;DHT22;59091;47.446;19.148;2023-03-25T04:22:41;13.65;76.82
71304;DHT22;59091;47.446;19.148;2023-03-25T04:25:10;13.57;77.36
71304;DHT22;59091;47.446;19.148;2023-03-25T04:27:37;13.51;77.86
71304;DHT22;59091;47.446;19.148;2023-03-25T04:30:05;13.71;77.16
71304;DHT22;59091;47.446;19.148;2023-03-25T04:32:31;13.82;76.93
71304;DHT22;59091;47.446;19.148;2023-03-25T04:34:56;13.92;76.57
71304;DHT22;59091;47.446;19.148;2023-03-25T04:37:26;13.94;76.33
71304;DHT22;59091;47.446;19.148;2023-03-25T04:39:52;13.98;76.47
71304;DHT22;59091;47.446;19.148;2023-03-25T04:42:20;14.01;76.34
71304;DHT22;59091;47.446;19.148;2023-03-25T04:44:52;14.09;76.15
71304;DHT22;59091;47.446;19.148;2023-03-25T04:47:22;14.09;76.18
71304;DHT22;59091;47.446;19.148;2023-03-25T04:49:47;14.13;76.19
71304;DHT22;59091;47.446;19.148;2023-03-25T04:52:13;14.19;75.89
71304;DHT22;59091;47.446;19.148;2023-03-25T04:54:38;14.22;75.99
71304;DHT22;59091;47.446;19.148;2023-03-25T04:57:04;14.25;76.14
71304;DHT22;59091;47.446;19.148;2023-03-25T04:59:32;14.26;76.09
71304;DHT22;59091;47.446;19.148;2023-03-25T05:01:58;14.29;75.89
71304;DHT22;59091;47.446;19.148;2023-03-25T05:04:23;14.32;76.18
71304;DHT22;59091;47.446;19.148;2023-03-25T05:06:49;14.29;76.42
71304;DHT22;59091;47.446;19.148;2023-03-25T05:09:17;14.33;76.32
71304;DHT22;59091;47.446;19.148;2023-03-25T05:11:44;14.37;76.44
71304;DHT22;59091;47.446;19.148;2023-03-25T05:14:11;14.30;76.50
71304;DHT22;59091;47.446;19.148;2023-03-25T05:16:37;14.30;76.25
71304;DHT22;59091;47.446;19.148;2023-03-25T05:19:04;14.25;76.13
71304;DHT22;59091;47.446;19.148;2023-03-25T05:21:34;14.19;76.47
71304;DHT22;59091;47.446;19.148;2023-03-25T05:24:03;14.22;76.55
71304;DHT22;59091;47.446;19.148;2023-03-25T05:26:29;14.15;76.32
71304;DHT22;59091;47.446;19.148;2023-03-25T05:29:13;13.95;76.29
71304;DHT22;59091;47.446;19.148;2023-03-25T05:31:43;13.77;75.54
71304;DHT22;59091;47.446;19.148;2023-03-25T05:34:09;13.62;76.13
71304;DHT22;59091;47.446;19.148;2023-03-25T05:36:35;13.72;75.73
71304;DHT22;59091;47.446;19.148;2023-03-25T05:39:01;13.60;76.16
71304;DHT22;59091;47.446;19.148;2023-03-25T05:41:28;13.58;75.68
71304;DHT22;59091;47.446;19.148;2023-03-25T05:43:59;13.57;76.00
71304;DHT22;59091;47.446;19.148;2023-03-25T05:46:26;13.67;75.73
71304;DHT22;59091;47.446;19.148;2023-03-25T05:48:55;13.77;77.12
71304;DHT22;59091;47.446;19.148;2023-03-25T05:51:22;13.77;76.05
71304;DHT22;59091;47.446;19.148;2023-03-25T05:53:48;13.86;75.21
71304;DHT22;59091;47.446;19.148;2023-03-25T05:56:15;13.70;75.30
71304;DHT22;59091;47.446;19.148;2023-03-25T05:58:42;13.79;75.87
71304;DHT22;59091;47.446;19.148;2023-03-25T06:01:09;13.88;75.90
71304;DHT22;59091;47.446;19.148;2023-03-25T06:03:35;13.98;76.15
71304;DHT22;59091;47.446;19.148;2023-03-25T06:06:00;14.08;76.04
71304;DHT22;59091;47.446;19.148;2023-03-25T06:08:29;14.11;76.19
71304;DHT22;59091;47.446;19.148;2023-03-25T06:10:56;14.08;75.99
71304;DHT22;59091;47.446;19.148;2023-03-25T06:13:25;14.04;75.68
71304;DHT22;59091;47.446;19.148;2023-03-25T06:15:51;13.89;76.14
71304;DHT22;59091;47.446;19.148;2023-03-25T06:18:23;13.97;75.20
71304;DHT22;59091;47.446;19.148;2023-03-25T06:20:52;13.92;74.85
71304;DHT22;59091;47.446;19.148;2023-03-25T06:23:23;13.83;75.95
71304;DHT22;59091;47.446;19.148;2023-03-25T06:25:49;13.83;75.27
71304;DHT22;59091;47.446;19.148;2023-03-25T06:28:15;13.77;75.60
71304;DHT22;59091;47.446;19.148;2023-03-25T06:30:44;13.92;74.94
71304;DHT22;59091;47.446;19.148;2023-03-25T06:33:09;13.83;74.78
71304;DHT22;59091;47.446;19.148;2023-03-25T06:35:35;13.99;74.23
71304;DHT22;59091;47.446;19.148;2023-03-25T06:38:00;13.89;74.13
71304;DHT22;59091;47.446;19.148;2023-03-25T06:40:26;13.79;74.90
71304;DHT22;59091;47.446;19.148;2023-03-25T06:42:51;13.99;74.54
71304;DHT22;59091;47.446;19.148;2023-03-25T06:45:17;14.01;74.74
71304;DHT22;59091;47.446;19.148;2023-03-25T06:47:42;14.16;74.34
71304;DHT22;59091;47.446;19.148;2023-03-25T06:50:08;14.29;73.84
71304;DHT22;59091;47.446;19.148;2023-03-25T06:52:34;14.32;73.52
71304;DHT22;59091;47.446;19.148;2023-03-25T06:55:00;14.42;73.02
71304;DHT22;59091;47.446;19.148;2023-03-25T06:57:25;14.28;72.85
71304;DHT22;59091;47.446;19.148;2023-03-25T06:59:51;14.32;73.05
71304;DHT22;59091;47.446;19.148;2023-03-25T07:02:16;14.50;72.71
71304;DHT22;59091;47.446;19.148;2023-03-25T07:04:41;14.62;72.74
71304;DHT22;59091;47.446;19.148;2023-03-25T07:07:07;14.67;72.65
71304;DHT22;59091;47.446;19.148;2023-03-25T07:09:33;14.79;71.58
71304;DHT22;59091;47.446;19.148;2023-03-25T07:11:58;14.73;70.83
71304;DHT22;59091;47.446;19.148;2023-03-25T07:14:24;14.81;70.36
71304;DHT22;59091;47.446;19.148;2023-03-25T07:16:49;14.83;70.07
71304;DHT22;59091;47.446;19.148;2023-03-25T07:19:15;15.10;69.44
71304;DHT22;59091;47.446;19.148;2023-03-25T07:21:40;15.14;69.43
71304;DHT22;59091;47.446;19.148;2023-03-25T07:24:06;15.14;68.97
71304;DHT22;59091;47.446;19.148;2023-03-25T07:26:32;15.21;69.77
71304;DHT22;59091;47.446;19.148;2023-03-25T07:28:57;15.12;67.92
71304;DHT22;59091;47.446;19.148;2023-03-25T07:31:23;15.20;68.38
71304;DHT22;59091;47.446;19.148;2023-03-25T07:33:48;15.27;67.20
71304;DHT22;59091;47.446;19.148;2023-03-25T07:36:15;15.46;68.56
71304;DHT22;59091;47.446;19.148;2023-03-25T07:38:41;15.34;67.97
71304;DHT22;59091;47.446;19.148;2023-03-25T07:41:11;15.51;68.64
71304;DHT22;59091;47.446;19.148;2023-03-25T07:43:37;15.49;67.86
71304;DHT22;59091;47.446;19.148;2023-03-25T07:46:03;15.38;67.21
71304;DHT22;59091;47.446;19.148;2023-03-25T07:48:29;15.48;67.39
71304;DHT22;59091;47.446;19.148;2023-03-25T07:50:55;15.18;66.70
71304;DHT22;59091;47.446;19.148;2023-03-25T07:53:20;15.28;65.89
71304;DHT22;59091;47.446;19.148;2023-03-25T07:55:46;15.49;65.66
71304;DHT22;59091;47.446;19.148;2023-03-25T07:58:12;15.69;65.19
71304;DHT22;59091;47.446;19.148;2023-03-25T08:00:37;15.73;64.20
71304;DHT22;59091;47.446;19.148;2023-03-25T08:03:03;15.72;62.73
71304;DHT22;59091;47.446;19.148;2023-03-25T08:05:29;15.63;62.70
71304;DHT22;59091;47.446;19.148;2023-03-25T08:07:55;15.51;62.29
71304;DHT22;59091;47.446;19.148;2023-03-25T08:10:24;15.62;62.22
71304;DHT22;59091;47.446;19.148;2023-03-25T08:12:51;15.59;61.76
71304;DHT22;59091;47.446;19.148;2023-03-25T08:15:17;15.83;64.74
71304;DHT22;59091;47.446;19.148;2023-03-25T08:17:42;15.93;59.86
71304;DHT22;59091;47.446;19.148;2023-03-25T08:20:08;16.13;60.65
71304;DHT22;59091;47.446;19.148;2023-03-25T08:22:33;16.30;62.31
71304;DHT22;59091;47.446;19.148;2023-03-25T08:25:00;16.57;59.26
71304;DHT22;59091;47.446;19.148;2023-03-25T08:27:25;16.63;58.51
71304;DHT22;59091;47.446;19.148;2023-03-25T08:29:51;16.45;58.00
71304;DHT22;59091;47.446;19.148;2023-03-25T08:32:24;16.30;57.31
71304;DHT22;59091;47.446;19.148;2023-03-25T08:34:51;16.34;57.80
71304;DHT22;59091;47.446;19.148;2023-03-25T08:37:17;16.33;57.00
71304;DHT22;59091;47.446;19.148;2023-03-25T08:39:42;16.53;57.89
71304;DHT22;59091;47.446;19.148;2023-03-25T08:42:12;16.72;55.56
71304;DHT22;59091;47.446;19.148;2023-03-25T08:44:37;16.72;55.00
71304;DHT22;59091;47.446;19.148;2023-03-25T08:47:04;16.69;55.53
71304;DHT22;59091;47.446;19.148;2023-03-25T08:49:29;16.92;55.11
71304;DHT22;59091;47.446;19.148;2023-03-25T08:51:56;17.04;55.05
71304;DHT22;59091;47.446;19.148;2023-03-25T08:54:25;16.91;54.27
71304;DHT22;59091;47.446;19.148;2023-03-25T08:56:51;16.91;54.59
71304;DHT22;59091;47.446;19.148;2023-03-25T08:59:17;17.04;54.43
71304;DHT22;59091;47.446;19.148;2023-03-25T09:01:42;17.05;53.73
71304;DHT22;59091;47.446;19.148;2023-03-25T09:04:09;17.20;53.77
71304;DHT22;59091;47.446;19.148;2023-03-25T09:06:34;16.96;52.42
71304;DHT22;59091;47.446;19.148;2023-03-25T09:09:00;16.78;52.22
71304;DHT22;59091;47.446;19.148;2023-03-25T09:11:26;16.92;53.13
71304;DHT22;59091;47.446;19.148;2023-03-25T09:13:51;17.09;53.06
71304;DHT22;59091;47.446;19.148;2023-03-25T09:16:17;17.18;52.65
71304;DHT22;59091;47.446;19.148;2023-03-25T09:18:42;16.94;52.45
71304;DHT22;59091;47.446;19.148;2023-03-25T09:21:08;17.09;52.74
71304;DHT22;59091;47.446;19.148;2023-03-25T09:23:33;17.26;51.80
71304;DHT22;59091;47.446;19.148;2023-03-25T09:26:00;17.20;51.94
71304;DHT22;59091;47.446;19.148;2023-03-25T09:28:28;17.35;51.01
71304;DHT22;59091;47.446;19.148;2023-03-25T09:30:54;17.29;51.85
71304;DHT22;59091;47.446;19.148;2023-03-25T09:33:20;17.27;51.41
71304;DHT22;59091;47.446;19.148;2023-03-25T09:35:45;17.19;51.52
71304;DHT22;59091;47.446;19.148;2023-03-25T09:38:11;17.54;52.85
71304;DHT22;59091;47.446;19.148;2023-03-25T09:40:41;17.69;50.57
71304;DHT22;59091;47.446;19.148;2023-03-25T09:43:34;17.87;50.35
71304;DHT22;59091;47.446;19.148;2023-03-25T09:46:02;18.02;50.90
71304;DHT22;59091;47.446;19.148;2023-03-25T09:48:42;17.94;49.35
71304;DHT22;59091;47.446;19.148;2023-03-25T09:51:27;17.66;48.13
71304;DHT22;59091;47.446;19.148;2023-03-25T09:53:59;17.83;48.53
71304;DHT22;59091;47.446;19.148;2023-03-25T09:56:28;18.08;47.59
71304;DHT22;59091;47.446;19.148;2023-03-25T09:59:06;18.35;50.88
71304;DHT22;59091;47.446;19.148;2023-03-25T10:02:05;18.36;48.63
71304;DHT22;59091;47.446;19.148;2023-03-25T10:10:35;18.53;44.76
71304;DHT22;59091;47.446;19.148;2023-03-25T10:13:13;18.58;45.65
71304;DHT22;59091;47.446;19.148;2023-03-25T10:16:21;18.56;45.44
71304;DHT22;59091;47.446;19.148;2023-03-25T10:22:18;18.58;45.33
71304;DHT22;59091;47.446;19.148;2023-03-25T10:24:51;18.97;46.66
71304;DHT22;59091;47.446;19.148;2023-03-25T10:27:26;18.89;44.68
71304;DHT22;59091;47.446;19.148;2023-03-25T10:32:40;18.73;44.76
71304;DHT22;59091;47.446;19.148;2023-03-25T10:35:14;18.36;44.71
71304;DHT22;59091;47.446;19.148;2023-03-25T10:37:41;18.35;44.35
71304;DHT22;59091;47.446;19.148;2023-03-25T10:45:33;18.15;47.39
71304;DHT22;59091;47.446;19.148;2023-03-25T10:48:13;17.94;48.20
71304;DHT22;59091;47.446;19.148;2023-03-25T10:50:41;17.87;49.56
71304;DHT22;59091;47.446;19.148;2023-03-25T10:53:32;17.66;49.44
71304;DHT22;59091;47.446;19.148;2023-03-25T10:56:04;17.73;49.32
71304;DHT22;59091;47.446;19.148;2023-03-25T10:58:31;17.57;50.46
71304;DHT22;59091;47.446;19.148;2023-03-25T11:00:59;17.69;50.95
71304;DHT22;59091;47.446;19.148;2023-03-25T11:03:30;17.78;50.36
71304;DHT22;59091;47.446;19.148;2023-03-25T11:05:58;17.93;49.81
71304;DHT22;59091;47.446;19.148;2023-03-25T11:08:23;17.98;48.59
71304;DHT22;59091;47.446;19.148;2023-03-25T11:10:50;18.27;47.83
71304;DHT22;59091;47.446;19.148;2023-03-25T11:13:26;18.77;46.76
71304;DHT22;59091;47.446;19.148;2023-03-25T11:15:54;19.04;46.45
71304;DHT22;59091;47.446;19.148;2023-03-25T11:18:36;19.09;45.11
71304;DHT22;59091;47.446;19.148;2023-03-25T11:21:10;18.95;43.46
71304;DHT22;59091;47.446;19.148;2023-03-25T11:23:36;18.82;43.22
71304;DHT22;59091;47.446;19.148;2023-03-25T11:28:43;18.68;44.60
71304;DHT22;59091;47.446;19.148;2023-03-25T11:34:20;18.65;44.78
71304;DHT22;59091;47.446;19.148;2023-03-25T11:36:50;18.46;45.11
71304;DHT22;59091;47.446;19.148;2023-03-25T11:39:24;18.72;45.27
71304;DHT22;59091;47.446;19.148;2023-03-25T11:41:50;18.72;44.27
71304;DHT22;59091;47.446;19.148;2023-03-25T11:44:26;18.65;44.01
71304;DHT22;59091;47.446;19.148;2023-03-25T11:47:05;18.46;43.77
71304;DHT22;59091;47.446;19.148;2023-03-25T11:49:34;18.22;44.15
71304;DHT22;59091;47.446;19.148;2023-03-25T11:52:14;17.96;43.78
71304;DHT22;59091;47.446;19.148;2023-03-25T11:54:42;17.67;43.90
71304;DHT22;59091;47.446;19.148;2023-03-25T11:57:15;17.77;44.54
71304;DHT22;59091;47.446;19.148;2023-03-25T11:59:45;17.97;44.12
71304;DHT22;59091;47.446;19.148;2023-03-25T12:02:25;18.04;43.61
71304;DHT22;59091;47.446;19.148;2023-03-25T12:05:00;18.27;43.60
71304;DHT22;59091;47.446;19.148;2023-03-25T12:07:26;18.44;44.42
71304;DHT22;59091;47.446;19.148;2023-03-25T12:09:55;18.56;43.78
71304;DHT22;59091;47.446;19.148;2023-03-25T12:12:24;18.29;41.74
71304;DHT22;59091;47.446;19.148;2023-03-25T12:28:28;17.66;41.62
71304;DHT22;59091;47.446;19.148;2023-03-25T12:45:15;17.46;41.56
71304;DHT22;59091;47.446;19.148;2023-03-25T12:56:32;17.71;40.37
71304;DHT22;59091;47.446;19.148;2023-03-25T12:59:16;17.70;41.24
71304;DHT22;59091;47.446;19.148;2023-03-25T13:07:39;17.59;40.93
71304;DHT22;59091;47.446;19.148;2023-03-25T13:12:55;17.46;40.95
71304;DHT22;59091;47.446;19.148;2023-03-25T13:15:46;17.54;42.03
71304;DHT22;59091;47.446;19.148;2023-03-25T13:18:17;17.50;40.90
71304;DHT22;59091;47.446;19.148;2023-03-25T13:21:01;17.54;41.20
71304;DHT22;59091;47.446;19.148;2023-03-25T13:23:28;17.53;41.09
71304;DHT22;59091;47.446;19.148;2023-03-25T13:28:48;17.69;41.79
71304;DHT22;59091;47.446;19.148;2023-03-25T13:31:19;17.77;41.03
71304;DHT22;59091;47.446;19.148;2023-03-25T13:34:11;17.94;41.90
71304;DHT22;59091;47.446;19.148;2023-03-25T13:36:45;17.93;40.14
71304;DHT22;59091;47.446;19.148;2023-03-25T13:39:19;17.78;39.32
71304;DHT22;59091;47.446;19.148;2023-03-25T13:41:55;17.84;40.25
71304;DHT22;59091;47.446;19.148;2023-03-25T13:44:33;17.84;40.61
71304;DHT22;59091;47.446;19.148;2023-03-25T13:47:01;17.88;40.94
71304;DHT22;59091;47.446;19.148;2023-03-25T13:49:46;17.60;41.24
71304;DHT22;59091;47.446;19.148;2023-03-25T13:52:13;17.47;41.59
71304;DHT22;59091;47.446;19.148;2023-03-25T13:54:58;17.46;41.50
71304;DHT22;59091;47.446;19.148;2023-03-25T13:57:55;17.49;41.08
71304;DHT22;59091;47.446;19.148;2023-03-25T14:06:34;17.43;41.30
71304;DHT22;59091;47.446;19.148;2023-03-25T14:14:39;17.32;38.68
71304;DHT22;59091;47.446;19.148;2023-03-25T14:17:06;17.08;40.83
71304;DHT22;59091;47.446;19.148;2023-03-25T14:19:37;17.01;40.72
71304;DHT22;59091;47.446;19.148;2023-03-25T14:22:15;16.92;41.15
71304;DHT22;59091;47.446;19.148;2023-03-25T14:24:43;16.84;41.88
71304;DHT22;59091;47.446;19.148;2023-03-25T14:27:14;16.82;41.44
71304;DHT22;59091;47.446;19.148;2023-03-25T14:29:51;16.47;42.24
71304;DHT22;59091;47.446;19.148;2023-03-25T14:34:46;16.67;41.50
71304;DHT22;59091;47.446;19.148;2023-03-25T14:37:26;16.71;41.55
71304;DHT22;59091;47.446;19.148;2023-03-25T14:39:59;16.72;42.22
71304;DHT22;59091;47.446;19.148;2023-03-25T14:43:16;16.69;43.11
71304;DHT22;59091;47.446;19.148;2023-03-25T14:45:38;16.67;42.19
71304;DHT22;59091;47.446;19.148;2023-03-25T14:48:22;16.60;42.02
71304;DHT22;59091;47.446;19.148;2023-03-25T14:50:53;16.63;41.24
71304;DHT22;59091;47.446;19.148;2023-03-25T14:53:31;16.76;41.92
71304;DHT22;59091;47.446;19.148;2023-03-25T14:55:59;16.67;41.99
71304;DHT22;59091;47.446;19.148;2023-03-25T14:58:28;16.63;42.05
71304;DHT22;59091;47.446;19.148;2023-03-25T15:01:09;16.65;41.92
71304;DHT22;59091;47.446;19.148;2023-03-25T15:03:40;16.81;41.90
71304;DHT22;59091;47.446;19.148;2023-03-25T15:06:12;16.72;41.46
71304;DHT22;59091;47.446;19.148;2023-03-25T15:08:40;16.63;41.40
71304;DHT22;59091;47.446;19.148;2023-03-25T15:11:09;16.58;41.31
71304;DHT22;59091;47.446;19.148;2023-03-25T15:13:47;16.64;41.58
71304;DHT22;59091;47.446;19.148;2023-03-25T15:16:32;16.64;40.83
71304;DHT22;59091;47.446;19.148;2023-03-25T15:19:03;16.51;40.91
71304;DHT22;59091;47.446;19.148;2023-03-25T15:21:31;16.45;39.82
71304;DHT22;59091;47.446;19.148;2023-03-25T15:24:10;16.48;40.50
71304;DHT22;59091;47.446;19.148;2023-03-25T15:26:44;16.33;39.15
71304;DHT22;59091;47.446;19.148;2023-03-25T15:47:16;16.47;40.09
71304;DHT22;59091;47.446;19.148;2023-03-25T15:55:39;16.63;40.19
71304;DHT22;59091;47.446;19.148;2023-03-25T15:58:29;16.27;40.01
71304;DHT22;59091;47.446;19.148;2023-03-25T16:01:02;16.17;39.56
71304;DHT22;59091;47.446;19.148;2023-03-25T16:03:31;16.10;39.88
71304;DHT22;59091;47.446;19.148;2023-03-25T16:06:02;16.16;40.25
71304;DHT22;59091;47.446;19.148;2023-03-25T16:08:33;16.00;40.62
71304;DHT22;59091;47.446;19.148;2023-03-25T16:13:43;15.83;41.16
71304;DHT22;59091;47.446;19.148;2023-03-25T16:16:10;15.82;41.32
71304;DHT22;59091;47.446;19.148;2023-03-25T16:18:38;15.79;40.55
71304;DHT22;59091;47.446;19.148;2023-03-25T16:21:06;15.90;40.88
71304;DHT22;59091;47.446;19.148;2023-03-25T16:23:34;15.63;41.76
71304;DHT22;59091;47.446;19.148;2023-03-25T16:26:00;16.02;48.39
71304;DHT22;59091;47.446;19.148;2023-03-25T16:28:30;15.81;39.68
71304;DHT22;59091;47.446;19.148;2023-03-25T16:30:56;15.70;40.48
71304;DHT22;59091;47.446;19.148;2023-03-25T16:33:28;15.58;39.55
71304;DHT22;59091;47.446;19.148;2023-03-25T16:36:04;15.42;39.74
71304;DHT22;59091;47.446;19.148;2023-03-25T16:38:31;15.53;40.00
71304;DHT22;59091;47.446;19.148;2023-03-25T16:41:02;15.43;39.79
71304;DHT22;59091;47.446;19.148;2023-03-25T16:43:29;15.48;39.75
71304;DHT22;59091;47.446;19.148;2023-03-25T16:46:00;15.55;40.04
71304;DHT22;59091;47.446;19.148;2023-03-25T16:50:57;15.46;40.01
71304;DHT22;59091;47.446;19.148;2023-03-25T16:53:24;15.22;40.16
71304;DHT22;59091;47.446;19.148;2023-03-25T16:56:42;15.32;40.05
71304;DHT22;59091;47.446;19.148;2023-03-25T16:59:16;15.07;39.87
71304;DHT22;59091;47.446;19.148;2023-03-25T17:01:50;15.18;40.25
71304;DHT22;59091;47.446;19.148;2023-03-25T17:04:19;15.18;40.17
71304;DHT22;59091;47.446;19.148;2023-03-25T17:06:56;15.18;40.14
71304;DHT22;59091;47.446;19.148;2023-03-25T17:09:29;15.07;40.45
71304;DHT22;59091;47.446;19.148;2023-03-25T17:12:00;14.97;41.04
71304;DHT22;59091;47.446;19.148;2023-03-25T17:14:32;14.98;40.78
71304;DHT22;59091;47.446;19.148;2023-03-25T17:17:02;15.05;40.96
71304;DHT22;59091;47.446;19.148;2023-03-25T17:19:31;14.94;40.97
71304;DHT22;59091;47.446;19.148;2023-03-25T17:22:26;14.93;41.00
71304;DHT22;59091;47.446;19.148;2023-03-25T17:25:15;14.93;41.92
71304;DHT22;59091;47.446;19.148;2023-03-25T17:27:42;14.90;42.14
71304;DHT22;59091;47.446;19.148;2023-03-25T17:30:38;14.74;41.85
71304;DHT22;59091;47.446;19.148;2023-03-25T17:35:53;14.83;42.17
71304;DHT22;59091;47.446;19.148;2023-03-25T17:38:34;14.76;42.64
71304;DHT22;59091;47.446;19.148;2023-03-25T17:41:06;14.77;42.83
71304;DHT22;59091;47.446;19.148;2023-03-25T17:43:34;14.80;42.82
71304;DHT22;59091;47.446;19.148;2023-03-25T17:46:02;14.77;43.11
71304;DHT22;59091;47.446;19.148;2023-03-25T17:48:29;14.71;43.11
71304;DHT22;59091;47.446;19.148;2023-03-25T17:50:56;14.71;43.52
71304;DHT22;59091;47.446;19.148;2023-03-25T17:53:22;14.64;43.17
71304;DHT22;59091;47.446;19.148;2023-03-25T17:55:49;14.60;43.42
71304;DHT22;59091;47.446;19.148;2023-03-25T17:58:15;14.53;44.05
71304;DHT22;59091;47.446;19.148;2023-03-25T18:00:41;14.47;44.20
71304;DHT22;59091;47.446;19.148;2023-03-25T18:03:19;14.36;44.26
71304;DHT22;59091;47.446;19.148;2023-03-25T18:05:47;14.33;44.74
71304;DHT22;59091;47.446;19.148;2023-03-25T18:08:17;14.26;44.76
71304;DHT22;59091;47.446;19.148;2023-03-25T18:10:43;14.21;45.13
71304;DHT22;59091;47.446;19.148;2023-03-25T18:13:09;14.15;45.42
71304;DHT22;59091;47.446;19.148;2023-03-25T18:15:35;14.11;45.71